createdAt,value
2022-12-07T00:01:45.334Z,99862.53
2022-12-07T00:04:15.920Z,99862.59
2022-12-07T00:06:45.495Z,99857.50
2022-12-07T00:09:15.739Z,99853.25
2022-12-07T00:11:46.107Z,99857.69
2022-12-07T00:14:17.211Z,99847.28
2022-12-07T00:16:46.357Z,99842.19
2022-12-07T00:19:16.136Z,99843.06
2022-12-07T00:21:44.822Z,99847.47
2022-12-07T00:24:13.814Z,99840.63
2022-12-07T00:26:43.816Z,99837.38
2022-12-07T00:29:17.758Z,99839.25
2022-12-07T00:31:45.975Z,99838.56
2022-12-07T00:34:15.962Z,99830.97
2022-12-07T00:36:44.068Z,99833.59
2022-12-07T00:39:12.127Z,99835.31
2022-12-07T00:41:40.253Z,99831.06
2022-12-07T00:44:08.474Z,99831.94
2022-12-07T00:46:37.949Z,99831.94
2022-12-07T00:49:06.163Z,99831.06
2022-12-07T00:51:34.472Z,99823.28
2022-12-07T00:54:02.580Z,99836.00
2022-12-07T00:56:31.888Z,99829.88
2022-12-07T00:59:01.617Z,99828.22
2022-12-07T01:01:31.978Z,99822.31
2022-12-07T01:04:02.492Z,99837.69
2022-12-07T01:06:31.135Z,99828.28
2022-12-07T01:08:59.228Z,99836.97
2022-12-07T01:11:29.920Z,99825.91
2022-12-07T01:13:59.945Z,99820.84
2022-12-07T01:16:31.280Z,99821.81
2022-12-07T01:19:01.884Z,99824.47
2022-12-07T01:21:35.848Z,99825.34
2022-12-07T01:24:04.867Z,99821.13
2022-12-07T01:26:32.995Z,99824.56
2022-12-07T01:29:01.980Z,99824.59
2022-12-07T01:31:30.724Z,99821.97
2022-12-07T01:34:02.466Z,99816.72
2022-12-07T01:36:32.476Z,99813.28
2022-12-07T01:39:02.203Z,99817.56
2022-12-07T01:41:34.259Z,99810.66
2022-12-07T01:44:17.925Z,99817.63
2022-12-07T01:46:47.617Z,99815.03
2022-12-07T01:49:23.586Z,99818.47
2022-12-07T01:51:54.110Z,99813.19
2022-12-07T01:54:24.079Z,99814.88
2022-12-07T01:56:55.883Z,99811.31
2022-12-07T01:59:27.316Z,99802.56
2022-12-07T02:01:57.271Z,99811.97
2022-12-07T02:04:27.086Z,99798.13
2022-12-07T02:06:56.081Z,99794.72
2022-12-07T02:09:24.158Z,99802.31
2022-12-07T02:11:53.314Z,99793.59
2022-12-07T02:14:21.415Z,99797.09
2022-12-07T02:17:00.006Z,99793.56
2022-12-07T02:20:09.178Z,99796.13
2022-12-07T02:23:15.241Z,99799.44
2022-12-07T02:26:03.617Z,99799.28
2022-12-07T02:28:36.307Z,99799.38
2022-12-07T02:31:07.816Z,99798.47
2022-12-07T02:33:39.172Z,99797.59
2022-12-07T02:36:10.561Z,99794.06
2022-12-07T02:38:42.156Z,99791.38
2022-12-07T02:41:14.699Z,99796.50
2022-12-07T02:43:47.833Z,99794.66
2022-12-07T02:46:21.878Z,99792.91
2022-12-07T02:48:51.732Z,99793.72
2022-12-07T02:51:20.327Z,99787.41
2022-12-07T02:53:48.426Z,99791.69
2022-12-07T02:56:29.987Z,99777.78
2022-12-07T02:59:07.991Z,99776.00
2022-12-07T03:01:46.937Z,99777.72
2022-12-07T03:04:34.782Z,99776.75
2022-12-07T03:07:13.109Z,99772.31
2022-12-07T03:09:53.610Z,99769.59
2022-12-07T03:12:28.641Z,99772.09
2022-12-07T03:15:03.268Z,99772.06
2022-12-07T03:17:35.977Z,99769.44
2022-12-07T03:20:08.837Z,99774.56
2022-12-07T03:22:38.082Z,99773.66
2022-12-07T03:25:10.187Z,99778.72
2022-12-07T03:27:42.895Z,99760.50
2022-12-07T03:30:14.984Z,99768.19
2022-12-07T03:32:47.380Z,99773.34
2022-12-07T03:35:20.155Z,99771.50
2022-12-07T03:37:49.894Z,99761.06
2022-12-07T03:40:24.201Z,99760.97
2022-12-07T03:42:54.322Z,99770.50
2022-12-07T03:45:28.114Z,99771.31
2022-12-07T03:48:07.860Z,99772.97
2022-12-07T03:50:44.131Z,99779.81
2022-12-07T03:53:16.547Z,99784.06
2022-12-07T03:55:48.021Z,99783.09
2022-12-07T03:58:20.259Z,99779.50
2022-12-07T04:00:48.610Z,99781.09
2022-12-07T04:03:18.693Z,99780.00
2022-12-07T04:05:47.603Z,99779.00
2022-12-07T04:08:15.938Z,99783.97
2022-12-07T04:10:44.092Z,99782.19
2022-12-07T04:13:12.295Z,99779.38
2022-12-07T04:15:40.461Z,99782.81
2022-12-07T04:18:08.711Z,99785.25
2022-12-07T04:20:38.206Z,99785.25
2022-12-07T04:23:06.272Z,99788.59
2022-12-07T04:25:35.583Z,99793.69
2022-12-07T04:28:03.685Z,99797.84
2022-12-07T04:30:31.799Z,99789.91
2022-12-07T04:32:59.882Z,99795.03
2022-12-07T04:35:28.023Z,99782.75
2022-12-07T04:37:57.489Z,99793.94
2022-12-07T04:40:25.597Z,99788.63
2022-12-07T04:42:53.710Z,99780.59
2022-12-07T04:45:21.836Z,99783.16
2022-12-07T04:47:49.935Z,99787.50
2022-12-07T04:50:18.066Z,99787.50
2022-12-07T04:52:46.221Z,99790.94
2022-12-07T04:55:15.731Z,99796.03
2022-12-07T04:57:43.838Z,99800.25
2022-12-07T05:00:12.887Z,99798.53
2022-12-07T05:02:40.968Z,99799.47
2022-12-07T05:05:09.803Z,99794.09
2022-12-07T05:07:37.914Z,99794.03
2022-12-07T05:10:07.866Z,99794.03
2022-12-07T05:12:37.526Z,99790.47
2022-12-07T05:15:06.673Z,99796.38
2022-12-07T05:17:34.794Z,99787.69
2022-12-07T05:20:03.137Z,99786.88
2022-12-07T05:22:31.416Z,99785.56
2022-12-07T05:24:59.509Z,99795.00
2022-12-07T05:27:27.685Z,99785.56
2022-12-07T05:29:57.183Z,99792.41
2022-12-07T05:32:25.289Z,99787.19
2022-12-07T05:34:55.807Z,99782.91
2022-12-07T05:37:23.914Z,99776.84
2022-12-07T05:39:51.983Z,99780.53
2022-12-07T05:42:20.239Z,99777.16
2022-12-07T05:44:48.900Z,99779.19
2022-12-07T05:47:18.848Z,99774.06
2022-12-07T05:49:46.954Z,99779.19
2022-12-07T05:52:15.094Z,99771.47
2022-12-07T05:54:43.305Z,99777.56
2022-12-07T05:57:11.609Z,99778.47
2022-12-07T05:59:38.725Z,99772.53
2022-12-07T06:02:09.630Z,99784.53
2022-12-07T06:04:42.511Z,99780.22
2022-12-07T06:07:10.769Z,99776.78
2022-12-07T06:09:38.871Z,99784.69
2022-12-07T06:12:24.823Z,99782.16
2022-12-07T06:14:52.977Z,99783.13
2022-12-07T06:17:21.087Z,99777.84
2022-12-07T06:19:50.576Z,99779.50
2022-12-07T06:22:19.137Z,99777.78
2022-12-07T06:24:47.261Z,99781.19
2022-12-07T06:27:15.513Z,99778.47
2022-12-07T06:29:43.593Z,99776.72
2022-12-07T06:32:12.837Z,99783.66
2022-12-07T06:34:41.281Z,99780.16
2022-12-07T06:37:10.814Z,99789.66
2022-12-07T06:39:39.994Z,99788.72
2022-12-07T06:42:08.124Z,99794.75
2022-12-07T06:44:36.233Z,99791.19
2022-12-07T06:47:38.997Z,99797.25
2022-12-07T06:49:53.712Z,99796.31
2022-12-07T06:52:23.191Z,99799.72
2022-12-07T06:54:51.284Z,99801.41
2022-12-07T06:57:19.459Z,99805.66
2022-12-07T06:59:47.540Z,99799.53
2022-12-07T07:02:15.722Z,99799.47
2022-12-07T07:04:43.825Z,99811.53
2022-12-07T07:07:12.010Z,99807.06
2022-12-07T07:09:41.526Z,99803.44
2022-12-07T07:12:09.660Z,99805.91
2022-12-07T07:14:37.771Z,99803.31
2022-12-07T07:17:05.943Z,99800.69
2022-12-07T07:19:34.062Z,99804.06
2022-12-07T07:22:02.271Z,99793.72
2022-12-07T07:24:30.385Z,99805.84
2022-12-07T07:26:59.883Z,99803.22
2022-12-07T07:29:27.951Z,99809.22
2022-12-07T07:31:56.050Z,99804.88
2022-12-07T07:34:24.220Z,99807.31
2022-12-07T07:36:52.299Z,99805.59
2022-12-07T07:39:20.382Z,99805.56
2022-12-07T07:41:49.069Z,99803.69
2022-12-07T07:44:18.536Z,99806.97
2022-12-07T07:46:46.686Z,99797.38
2022-12-07T07:49:14.860Z,99797.22
2022-12-07T07:51:42.976Z,99803.16
2022-12-07T07:54:11.087Z,99795.13
2022-12-07T07:56:39.225Z,99800.19
2022-12-07T07:59:07.358Z,99800.81
2022-12-07T08:01:36.937Z,99800.81
2022-12-07T08:04:05.099Z,99812.53
2022-12-07T08:06:33.218Z,99806.06
2022-12-07T08:09:01.479Z,99807.56
2022-12-07T08:11:29.764Z,99802.75
2022-12-07T08:13:57.816Z,99814.66
2022-12-07T08:16:26.053Z,99809.13
2022-12-07T08:18:55.585Z,99805.34
2022-12-07T08:21:23.654Z,99812.81
2022-12-07T08:23:51.745Z,99803.59
2022-12-07T08:26:19.884Z,99805.19
2022-12-07T08:28:47.974Z,99807.63
2022-12-07T08:31:19.408Z,99821.28
2022-12-07T08:33:47.651Z,99823.69
2022-12-07T08:36:17.742Z,99819.88
2022-12-07T08:39:07.760Z,99821.38
2022-12-07T08:41:34.317Z,99819.63
2022-12-07T08:44:02.457Z,99813.09
2022-12-07T08:46:35.713Z,99809.09
2022-12-07T08:49:08.044Z,99814.09
2022-12-07T08:51:38.293Z,99811.63
2022-12-07T08:54:11.387Z,99815.34
2022-12-07T08:56:39.998Z,99807.44
2022-12-07T08:59:08.658Z,99823.44
2022-12-07T09:01:36.929Z,99818.91
2022-12-07T09:04:07.298Z,99823.13
2022-12-07T09:06:37.966Z,99818.88
2022-12-07T09:09:11.007Z,99817.00
2022-12-07T09:11:40.392Z,99820.25
2022-12-07T09:14:08.797Z,99799.63
2022-12-07T09:16:37.032Z,99807.25
2022-12-07T09:19:05.348Z,99806.53
2022-12-07T09:21:33.463Z,99811.94
2022-12-07T09:24:02.998Z,99807.13
2022-12-07T09:26:31.069Z,99802.59
2022-12-07T09:28:59.152Z,99798.59
2022-12-07T09:31:28.249Z,99800.53
2022-12-07T09:33:57.549Z,99807.44
2022-12-07T09:36:31.873Z,99796.09
2022-12-07T09:39:00.104Z,99794.63
2022-12-07T09:41:31.543Z,99797.22
2022-12-07T09:44:06.314Z,99784.44
2022-12-07T09:46:38.303Z,99790.66
2022-12-07T09:49:06.792Z,99786.69
2022-12-07T09:51:34.947Z,99795.34
2022-12-07T09:54:04.222Z,99785.97
2022-12-07T09:56:34.191Z,99778.44
2022-12-07T09:59:05.072Z,99782.19
2022-12-07T10:01:35.464Z,99778.72
2022-12-07T10:04:12.065Z,99782.84
2022-12-07T10:06:40.179Z,99785.50
2022-12-07T10:09:13.002Z,99778.28
2022-12-07T10:11:59.302Z,99779.56
2022-12-07T10:14:58.825Z,99778.72
2022-12-07T10:17:38.026Z,99774.06
2022-12-07T10:20:19.048Z,99773.03
2022-12-07T10:23:05.762Z,99771.25
2022-12-07T10:25:35.532Z,99771.47
2022-12-07T10:28:13.181Z,99764.63
2022-12-07T10:30:57.940Z,99765.47
2022-12-07T10:33:35.043Z,99763.53
2022-12-07T10:36:20.070Z,99765.47
2022-12-07T10:38:51.016Z,99760.91
2022-12-07T10:41:20.124Z,99758.91
2022-12-07T10:43:53.771Z,99761.19
2022-12-07T10:46:50.818Z,99759.25
2022-12-07T10:49:56.064Z,99770.78
2022-12-07T10:52:45.407Z,99763.47
2022-12-07T10:55:22.237Z,99763.53
2022-12-07T10:58:02.311Z,99763.16
2022-12-07T11:00:37.823Z,99761.19
2022-12-07T11:03:41.624Z,99760.63
2022-12-07T11:06:24.236Z,99759.50
2022-12-07T11:09:05.763Z,99751.47
2022-12-07T11:11:38.629Z,99747.81
2022-12-07T11:14:17.684Z,99751.25
2022-12-07T11:16:57.457Z,99745.28
2022-12-07T11:19:53.323Z,99752.97
2022-12-07T11:22:31.682Z,99751.91
2022-12-07T11:25:17.756Z,99751.25
2022-12-07T11:27:55.584Z,99751.34
2022-12-07T11:30:30.856Z,99740.25
2022-12-07T11:33:12.298Z,99728.28
2022-12-07T11:35:52.949Z,99739.28
2022-12-07T11:38:28.291Z,99740.78
2022-12-07T11:41:14.193Z,99745.81
2022-12-07T11:43:57.107Z,99734.78
2022-12-07T11:46:29.864Z,99740.56
2022-12-07T11:49:01.634Z,99734.28
2022-12-07T11:51:37.782Z,99750.88
2022-12-07T11:54:13.843Z,99748.94
2022-12-07T11:56:42.563Z,99752.13
2022-12-07T11:59:17.523Z,99748.34
2022-12-07T12:01:54.324Z,99739.34
2022-12-07T12:04:38.195Z,99740.06
2022-12-07T12:10:04.215Z,99731.16
2022-12-07T12:15:54.649Z,99723.84
2022-12-07T12:18:39.787Z,99710.06
2022-12-07T12:21:12.843Z,99714.97
2022-12-07T12:23:48.195Z,99702.22
2022-12-07T12:26:21.689Z,99699.53
2022-12-07T12:28:57.454Z,99699.53
2022-12-07T12:31:37.529Z,99699.53
2022-12-07T12:34:26.731Z,99700.25
2022-12-07T12:36:56.623Z,99688.97
2022-12-07T12:39:26.482Z,99696.63
2022-12-07T12:42:09.155Z,99689.81
2022-12-07T12:45:04.741Z,99686.19
2022-12-07T12:47:55.995Z,99697.09
2022-12-07T12:50:30.044Z,99689.91
2022-12-07T12:53:15.761Z,99692.16
2022-12-07T12:56:30.402Z,99694.28
2022-12-07T12:59:26.216Z,99697.84
2022-12-07T13:01:57.642Z,99697.47
2022-12-07T13:04:39.910Z,99700.63
2022-12-07T13:07:14.405Z,99693.63
2022-12-07T13:09:47.437Z,99699.81
2022-12-07T13:12:18.607Z,99691.56
2022-12-07T13:14:58.917Z,99694.44
2022-12-07T13:18:11.491Z,99700.72
2022-12-07T13:20:46.438Z,99707.78
2022-12-07T13:23:17.181Z,99711.56
2022-12-07T13:25:53.429Z,99717.28
2022-12-07T13:28:27.354Z,99712.31
2022-12-07T13:31:19.088Z,99712.78
2022-12-07T13:33:48.359Z,99709.63
2022-12-07T13:36:23.812Z,99712.34
2022-12-07T13:38:54.814Z,99713.00
2022-12-07T13:41:24.062Z,99717.72
2022-12-07T13:44:02.270Z,99713.81
2022-12-07T13:46:44.375Z,99717.72
2022-12-07T13:49:22.463Z,99710.78
2022-12-07T13:51:52.745Z,99722.94
2022-12-07T13:54:21.733Z,99722.06
2022-12-07T13:56:53.383Z,99726.31
2022-12-07T13:59:25.010Z,99729.00
2022-12-07T14:01:54.220Z,99728.91
2022-12-07T14:04:33.507Z,99728.06
2022-12-07T14:07:03.068Z,99723.66
2022-12-07T14:09:31.987Z,99724.59
2022-12-07T14:12:00.819Z,99713.44
2022-12-07T14:14:36.594Z,99719.38
2022-12-07T14:17:17.494Z,99722.06
2022-12-07T14:19:53.430Z,99720.53
2022-12-07T14:22:31.078Z,99730.28
2022-12-07T14:25:26.454Z,99727.97
2022-12-07T14:27:59.566Z,99730.75
2022-12-07T14:30:31.200Z,99726.72
2022-12-07T14:33:02.369Z,99718.19
2022-12-07T14:35:31.132Z,99713.16
2022-12-07T14:37:59.310Z,99733.34
2022-12-07T14:40:29.447Z,99735.34
2022-12-07T14:43:00.957Z,99742.56
2022-12-07T14:45:30.819Z,99745.56
2022-12-07T14:53:42.822Z,99736.72
2022-12-07T14:56:10.903Z,99744.06
2022-12-07T14:58:39.103Z,99741.59
2022-12-07T15:01:08.905Z,99746.81
2022-12-07T15:03:38.508Z,99751.34
2022-12-07T15:06:07.836Z,99759.25
2022-12-07T15:08:36.035Z,99748.22
2022-12-07T15:11:04.147Z,99755.28
2022-12-07T15:13:49.839Z,99754.66
2022-12-07T15:16:22.486Z,99760.06
2022-12-07T15:19:25.746Z,99761.19
2022-12-07T15:21:38.534Z,99762.25
2022-12-07T15:24:07.209Z,99761.66
2022-12-07T15:26:35.302Z,99758.47
2022-12-07T15:29:03.460Z,99762.25
2022-12-07T15:31:54.564Z,99770.13
2022-12-07T15:34:21.415Z,99771.22
2022-12-07T15:36:49.616Z,99771.53
2022-12-07T15:39:17.704Z,99770.66
2022-12-07T15:41:46.027Z,99771.81
2022-12-07T15:44:32.776Z,99785.03
2022-12-07T15:47:02.691Z,99786.16
2022-12-07T15:49:30.923Z,99793.00
2022-12-07T15:51:59.200Z,99789.72
2022-12-07T15:54:29.149Z,99788.97
2022-12-07T15:56:58.349Z,99789.97
2022-12-07T15:59:28.631Z,99791.81
2022-12-07T16:01:57.068Z,99789.38
2022-12-07T16:04:26.744Z,99789.50
2022-12-07T16:06:54.862Z,99793.03
2022-12-07T16:09:22.999Z,99798.53
2022-12-07T16:11:51.709Z,99794.28
2022-12-07T16:14:19.824Z,99784.19
2022-12-07T16:16:47.978Z,99785.94
2022-12-07T16:19:16.326Z,99786.88
2022-12-07T16:21:45.835Z,99789.50
2022-12-07T16:24:16.308Z,99783.50
2022-12-07T16:26:49.696Z,99778.41
2022-12-07T16:29:19.322Z,99784.44
2022-12-07T16:31:47.846Z,99786.22
2022-12-07T16:34:16.131Z,99788.75
2022-12-07T16:39:35.952Z,99790.59
2022-12-07T16:42:04.952Z,99803.78
2022-12-07T16:44:33.236Z,99800.50
2022-12-07T16:47:02.094Z,99800.72
2022-12-07T16:49:30.793Z,99805.91
2022-12-07T16:52:20.201Z,99800.06
2022-12-07T16:54:49.193Z,99805.28
2022-12-07T16:57:22.383Z,99801.13
2022-12-07T16:59:51.261Z,99806.00
2022-12-07T17:02:21.715Z,99804.50
2022-12-07T17:04:49.855Z,99816.66
2022-12-07T17:07:19.571Z,99805.47
2022-12-07T17:09:47.771Z,99803.88
2022-12-07T17:12:16.273Z,99810.94
2022-12-07T17:15:02.650Z,99818.00
2022-12-07T17:17:31.507Z,99815.31
2022-12-07T17:20:00.129Z,99808.47
2022-12-07T17:22:29.979Z,99814.63
2022-12-07T17:24:58.606Z,99816.41
2022-12-07T17:27:26.799Z,99828.53
2022-12-07T17:29:55.134Z,99827.81
2022-12-07T17:32:23.369Z,99817.44
2022-12-07T17:34:51.630Z,99820.69
2022-12-07T17:37:20.126Z,99811.91
2022-12-07T17:39:50.774Z,99805.00
2022-12-07T17:42:36.366Z,99817.91
2022-12-07T17:45:05.278Z,99818.81
2022-12-07T17:47:35.313Z,99819.69
2022-12-07T17:50:07.281Z,99820.41
2022-12-07T17:52:56.606Z,99828.03
2022-12-07T17:55:26.940Z,99816.81
2022-12-07T17:57:55.241Z,99825.59
2022-12-07T18:00:23.905Z,99825.78
2022-12-07T18:02:52.631Z,99834.53
2022-12-07T18:05:21.282Z,99831.22
2022-12-07T18:07:50.023Z,99841.72
2022-12-07T18:10:19.191Z,99840.97
2022-12-07T18:12:52.351Z,99833.34
2022-12-07T18:15:21.401Z,99845.50
2022-12-07T18:17:53.417Z,99842.09
2022-12-07T18:20:22.287Z,99830.06
2022-12-07T18:22:51.148Z,99837.78
2022-12-07T18:25:19.892Z,99834.38
2022-12-07T18:27:49.732Z,99829.09
2022-12-07T18:30:19.764Z,99833.38
2022-12-07T18:32:50.036Z,99830.00
2022-12-07T18:35:19.127Z,99830.97
2022-12-07T18:37:48.009Z,99827.56
2022-12-07T18:40:17.785Z,99826.75
2022-12-07T18:42:46.930Z,99826.81
2022-12-07T18:45:17.205Z,99833.75
2022-12-07T18:47:46.083Z,99836.38
2022-12-07T18:50:14.798Z,99834.06
2022-12-07T18:52:43.602Z,99842.84
2022-12-07T18:55:14.601Z,99843.91
2022-12-07T18:57:43.374Z,99844.91
2022-12-07T19:00:13.233Z,99852.78
2022-12-07T19:02:44.072Z,99855.44
2022-12-07T19:05:13.236Z,99851.16
2022-12-07T19:07:42.647Z,99858.00
2022-12-07T19:10:12.887Z,99857.09
2022-12-07T19:12:43.107Z,99855.34
2022-12-07T19:15:15.246Z,99860.50
2022-12-07T19:17:45.515Z,99850.09
2022-12-07T19:20:17.771Z,99857.88
2022-12-07T19:22:47.735Z,99856.03
2022-12-07T19:25:16.701Z,99846.50
2022-12-07T19:27:45.612Z,99855.88
2022-12-07T19:30:15.552Z,99851.50
2022-12-07T19:32:47.161Z,99842.88
2022-12-07T19:35:17.007Z,99851.56
2022-12-07T19:37:46.711Z,99845.63
2022-12-07T19:40:17.070Z,99848.19
2022-12-07T19:42:46.706Z,99849.03
2022-12-07T19:45:21.472Z,99843.06
2022-12-07T19:47:52.622Z,99840.47
2022-12-07T19:50:21.939Z,99844.75
2022-12-07T19:52:52.417Z,99849.97
2022-12-07T19:55:23.658Z,99847.38
2022-12-07T19:57:54.033Z,99850.03
2022-12-07T20:00:23.934Z,99859.53
2022-12-07T20:02:58.879Z,99862.22
2022-12-07T20:05:28.777Z,99857.03
2022-12-07T20:07:58.226Z,99861.41
2022-12-07T20:10:27.307Z,99851.97
2022-12-07T20:13:13.734Z,99862.31
2022-12-07T20:15:42.936Z,99857.16
2022-12-07T20:18:16.985Z,99857.94
2022-12-07T20:20:56.314Z,99862.13
2022-12-07T20:23:29.055Z,99870.81
2022-12-07T20:25:58.664Z,99883.84
2022-12-07T20:28:30.333Z,99876.25
2022-12-07T20:30:59.681Z,99873.84
2022-12-07T20:33:30.388Z,99878.09
2022-12-07T20:36:02.740Z,99865.13
2022-12-07T20:38:33.637Z,99875.31
2022-12-07T20:41:04.804Z,99872.47
2022-12-07T20:43:33.462Z,99860.28
2022-12-07T20:46:03.285Z,99875.91
2022-12-07T20:48:33.845Z,99867.34
2022-12-07T20:51:07.317Z,99875.13
2022-12-07T20:53:36.234Z,99875.16
2022-12-07T20:56:05.823Z,99885.56
2022-12-07T20:58:35.475Z,99877.88
2022-12-07T21:01:04.469Z,99888.41
2022-12-07T21:03:37.698Z,99888.47
2022-12-07T21:06:06.825Z,99886.81
2022-12-07T21:08:35.297Z,99874.81
2022-12-07T21:11:09.191Z,99890.41
2022-12-07T21:13:37.908Z,99886.94
2022-12-07T21:16:10.699Z,99882.66
2022-12-07T21:18:40.639Z,99883.50
2022-12-07T21:21:10.235Z,99885.19
2022-12-07T21:23:39.063Z,99880.91
2022-12-07T21:26:11.578Z,99880.03
2022-12-07T21:28:40.259Z,99884.34
2022-12-07T21:31:13.540Z,99881.81
2022-12-07T21:33:46.469Z,99886.13
2022-12-07T21:36:16.518Z,99894.81
2022-12-07T21:38:44.762Z,99894.00
2022-12-07T21:41:14.593Z,99895.72
2022-12-07T21:43:43.478Z,99887.00
2022-12-07T21:46:12.392Z,99891.34
2022-12-07T21:48:41.305Z,99893.03
2022-12-07T21:51:12.873Z,99890.41
2022-12-07T21:53:43.073Z,99899.00
2022-12-07T21:56:16.561Z,99897.25
2022-12-07T21:58:45.279Z,99882.53
2022-12-07T22:01:18.123Z,99884.25
2022-12-07T22:03:46.758Z,99881.63
2022-12-07T22:06:18.601Z,99882.47
2022-12-07T22:08:47.137Z,99883.28
2022-12-07T22:11:16.127Z,99888.50
2022-12-07T22:14:09.593Z,99887.66
2022-12-07T22:16:38.723Z,99886.94
2022-12-07T22:19:07.307Z,99878.41
2022-12-07T22:21:37.185Z,99873.28
2022-12-07T22:24:06.016Z,99872.47
2022-12-07T22:26:34.348Z,99875.13
2022-12-07T22:29:02.888Z,99872.59
2022-12-07T22:31:31.136Z,99868.34
2022-12-07T22:33:59.400Z,99877.88
2022-12-07T22:36:28.434Z,99877.06
2022-12-07T22:38:58.398Z,99882.31
2022-12-07T22:41:28.224Z,99878.00
2022-12-07T22:43:56.826Z,99882.31
2022-12-07T22:46:25.582Z,99875.44
2022-12-07T22:48:53.771Z,99879.69
2022-12-07T22:51:23.412Z,99880.53
2022-12-07T22:53:51.657Z,99880.50
2022-12-07T22:56:21.729Z,99873.56
2022-12-07T22:58:50.458Z,99880.38
2022-12-07T23:01:20.662Z,99875.19
2022-12-07T23:03:49.540Z,99875.19
2022-12-07T23:06:19.733Z,99873.50
2022-12-07T23:08:47.926Z,99881.25
2022-12-07T23:11:37.296Z,99876.09
2022-12-07T23:14:12.966Z,99869.25
2022-12-07T23:16:41.280Z,99858.09
2022-12-07T23:19:20.205Z,99867.50
2022-12-07T23:21:48.536Z,99868.31
2022-12-07T23:24:17.578Z,99873.41
2022-12-07T23:26:47.090Z,99860.53
2022-12-07T23:29:18.288Z,99877.78
2022-12-07T23:31:47.054Z,99876.03
2022-12-07T23:34:15.348Z,99868.25
2022-12-07T23:36:43.632Z,99875.09
2022-12-07T23:39:12.707Z,99870.81
2022-12-07T23:41:41.102Z,99872.53
2022-12-07T23:44:09.392Z,99868.28
2022-12-07T23:46:38.938Z,99864.75
2022-12-07T23:49:07.546Z,99873.25
2022-12-07T23:51:35.780Z,99856.63
2022-12-07T23:54:04.610Z,99859.94
2022-12-07T23:56:34.461Z,99864.19
2022-12-07T23:59:04.213Z,99865.00
